createdAt,value
2018-11-22T12:16:44.743Z,49.30
2018-11-22T12:19:20.117Z,49.48
2018-11-22T12:21:55.733Z,51.45
2018-11-22T12:24:30.913Z,55.38
2018-11-22T12:27:06.339Z,55.03
2018-11-22T12:29:41.674Z,59.33
2018-11-22T12:32:22.743Z,51.42
2018-11-22T12:35:01.863Z,50.95
2018-11-22T12:37:43.169Z,52.65
2018-11-22T12:40:14.381Z,48.38
2018-11-22T12:42:49.946Z,55.83
2018-11-22T12:45:25.593Z,53.08
2018-11-22T12:48:01.247Z,50.55
2018-11-22T12:50:36.686Z,66.22
2018-11-22T12:53:12.355Z,49.27
2018-11-22T12:55:47.964Z,54.35
2018-11-22T12:58:23.653Z,54.18
2018-11-22T13:00:59.678Z,58.50
2018-11-22T13:03:35.457Z,50.85
2018-11-22T13:06:10.951Z,53.25
2018-11-22T13:08:46.578Z,53.65
2018-11-22T13:11:21.730Z,52.15
2018-11-22T13:13:57.342Z,53.25
2018-11-22T13:16:32.958Z,53.68
2018-11-22T13:19:08.647Z,52.65
2018-11-22T13:21:43.987Z,55.85
2018-11-22T13:24:19.853Z,55.48
2018-11-22T13:26:55.187Z,52.85
2018-11-22T13:29:30.830Z,53.33
2018-11-22T13:32:06.265Z,49.27
2018-11-22T13:34:41.855Z,54.93
2018-11-22T13:37:17.275Z,51.35
2018-11-22T13:39:53.014Z,54.60
2018-11-22T13:42:28.218Z,57.23
2018-11-22T13:45:09.817Z,55.00
2018-11-22T13:47:46.402Z,52.38
2018-11-22T13:50:26.677Z,54.90
2018-11-22T13:53:05.697Z,50.35
2018-11-22T13:55:41.489Z,48.92
2018-11-22T13:58:16.868Z,53.87
2018-11-22T14:00:52.654Z,52.70
2018-11-22T14:03:28.120Z,50.12
2018-11-22T14:06:03.653Z,52.30
2018-11-22T14:08:38.937Z,48.00
2018-11-22T14:11:15.337Z,52.08
2018-11-22T14:13:50.048Z,55.98
2018-11-22T14:16:25.830Z,51.77
2018-11-22T14:19:01.315Z,49.25
2018-11-22T14:21:36.928Z,55.05
2018-11-22T14:24:12.404Z,53.23
2018-11-22T14:26:47.957Z,53.80
2018-11-22T14:29:23.400Z,48.85
2018-11-22T14:31:58.910Z,50.83
2018-11-22T14:34:34.662Z,52.60
2018-11-22T14:37:10.426Z,53.58
2018-11-22T14:39:45.918Z,57.08
2018-11-22T14:42:21.414Z,59.67
2018-11-22T14:44:57.083Z,51.75
2018-11-22T14:47:32.730Z,54.38
2018-11-22T14:50:20.750Z,46.65
2018-11-22T14:53:03.577Z,48.52
2018-11-22T14:55:39.209Z,50.50
2018-11-22T14:58:14.713Z,53.30
2018-11-22T15:00:50.148Z,52.50
2018-11-22T15:03:25.666Z,54.23
2018-11-22T15:06:01.089Z,52.00
2018-11-22T15:08:36.756Z,55.40
2018-11-22T15:11:12.036Z,58.02
2018-11-22T15:13:47.671Z,56.85
2018-11-22T15:16:22.891Z,51.68
2018-11-22T15:18:58.433Z,54.77
2018-11-22T15:21:33.896Z,64.85
2018-11-22T15:24:09.663Z,49.58
2018-11-22T15:26:44.950Z,57.58
2018-11-22T15:29:20.537Z,61.37
2018-11-22T15:31:55.834Z,58.68
2018-11-22T15:34:31.422Z,62.98
2018-11-22T15:37:06.851Z,62.67
2018-11-22T15:39:42.902Z,56.13
2018-11-22T15:42:18.272Z,61.40
2018-11-22T15:44:54.265Z,58.17
2018-11-22T15:47:29.789Z,62.85
2018-11-22T15:50:08.179Z,62.10
2018-11-22T15:52:43.859Z,51.08
2018-11-22T15:55:21.039Z,49.98
2018-11-22T15:57:57.063Z,58.92
2018-11-22T16:00:34.183Z,52.73
2018-11-22T16:03:09.674Z,65.75
2018-11-22T16:05:45.458Z,57.25
2018-11-22T16:08:20.933Z,52.88
2018-11-22T16:10:56.543Z,55.67
2018-11-22T16:13:31.925Z,58.95
2018-11-22T16:16:07.985Z,51.73
2018-11-22T16:18:43.434Z,56.40
2018-11-22T16:21:19.062Z,55.90
2018-11-22T16:23:54.934Z,54.42
2018-11-22T16:26:30.555Z,61.95
2018-11-22T16:29:06.049Z,64.30
2018-11-22T16:31:41.850Z,60.75
2018-11-22T16:34:17.441Z,64.25
2018-11-22T16:36:53.157Z,55.12
2018-11-22T16:39:28.691Z,58.68
2018-11-22T16:42:04.245Z,62.38
2018-11-22T16:44:39.743Z,57.67
2018-11-22T16:47:15.653Z,64.58
2018-11-22T16:49:51.202Z,67.90
2018-11-22T16:52:26.854Z,63.83
2018-11-22T16:55:02.330Z,72.00
2018-11-22T16:57:37.766Z,63.15
2018-11-22T17:00:19.443Z,61.35
2018-11-22T17:02:56.313Z,53.55
2018-11-22T17:05:31.951Z,63.65
2018-11-22T17:08:08.370Z,59.90
2018-11-22T17:10:43.717Z,60.83
2018-11-22T17:13:19.157Z,58.63
2018-11-22T17:15:54.467Z,55.40
2018-11-22T17:18:29.897Z,63.75
2018-11-22T17:21:06.585Z,62.17
2018-11-22T17:23:42.118Z,56.55
2018-11-22T17:26:17.494Z,57.85
2018-11-22T17:28:53.178Z,62.65
2018-11-22T17:31:28.536Z,66.47
2018-11-22T17:34:04.210Z,67.58
2018-11-22T17:36:39.782Z,55.65
2018-11-22T17:39:15.614Z,57.88
2018-11-22T17:41:51.044Z,62.75
2018-11-22T17:44:26.721Z,52.88
2018-11-22T17:47:02.248Z,60.98
2018-11-22T17:49:39.458Z,56.05
2018-11-22T17:52:14.792Z,58.40
2018-11-22T17:54:50.435Z,48.20
2018-11-22T17:57:25.774Z,57.33
2018-11-22T18:00:01.306Z,62.55
2018-11-22T18:02:37.358Z,62.60
2018-11-22T18:05:13.036Z,53.83
2018-11-22T18:07:48.412Z,58.52
2018-11-22T18:10:25.358Z,56.80
2018-11-22T18:13:01.090Z,55.25
2018-11-22T18:16:10.141Z,56.60
2018-11-22T18:18:45.721Z,53.45
2018-11-22T18:21:21.258Z,62.95
2018-11-22T18:23:56.860Z,53.63
2018-11-22T18:26:32.484Z,56.98
2018-11-22T18:29:08.008Z,55.83
2018-11-22T18:31:43.511Z,48.85
2018-11-22T18:34:18.850Z,48.45
2018-11-22T18:36:54.426Z,54.73
2018-11-22T18:39:29.897Z,56.08
2018-11-22T18:42:05.951Z,54.30
2018-11-22T18:44:41.404Z,60.35
2018-11-22T18:47:17.750Z,55.67
2018-11-22T18:49:53.104Z,56.83
2018-11-22T18:52:28.935Z,55.65
2018-11-22T18:55:04.514Z,56.90
2018-11-22T18:57:40.750Z,59.98
2018-11-22T19:00:24.014Z,59.10
2018-11-22T19:03:02.438Z,56.37
2018-11-22T19:05:37.813Z,58.87
2018-11-22T19:08:13.485Z,58.30
2018-11-22T19:10:48.953Z,60.52
2018-11-22T19:13:24.491Z,61.28
2018-11-22T19:15:59.899Z,54.42
2018-11-22T19:18:35.572Z,55.98
2018-11-22T19:21:11.110Z,62.60
2018-11-22T19:23:46.794Z,57.23
2018-11-22T19:26:22.190Z,62.23
2018-11-22T19:28:57.670Z,64.53
2018-11-22T19:31:33.175Z,55.92
2018-11-22T19:34:08.976Z,62.70
2018-11-22T19:36:44.541Z,59.58
2018-11-22T19:39:20.262Z,58.73
2018-11-22T19:41:55.773Z,58.87
2018-11-22T19:44:32.175Z,56.85
2018-11-22T19:47:07.857Z,52.00
2018-11-22T19:49:43.476Z,58.23
2018-11-22T19:52:18.910Z,56.80
2018-11-22T19:54:54.477Z,55.43
2018-11-22T19:57:30.265Z,59.23
2018-11-22T20:00:08.439Z,64.47
2018-11-22T20:02:44.566Z,64.42
2018-11-22T20:05:21.267Z,59.23
2018-11-22T20:07:58.148Z,59.50
2018-11-22T20:10:35.230Z,55.33
2018-11-22T20:13:10.406Z,62.88
2018-11-22T20:15:45.921Z,55.60
2018-11-22T20:18:21.410Z,62.53
2018-11-22T20:20:57.011Z,64.20
2018-11-22T20:23:32.498Z,58.10
2018-11-22T20:26:08.204Z,68.33
2018-11-22T20:28:43.377Z,57.23
2018-11-22T20:31:18.933Z,63.00
2018-11-22T20:33:54.382Z,54.45
2018-11-22T20:36:30.093Z,60.38
2018-11-22T20:39:10.736Z,58.45
2018-11-22T20:41:47.018Z,61.92
2018-11-22T20:44:22.398Z,57.75
2018-11-22T20:46:58.127Z,57.85
2018-11-22T20:49:33.333Z,67.10
2018-11-22T20:52:08.859Z,66.10
2018-11-22T20:54:44.109Z,59.33
2018-11-22T20:57:19.840Z,63.83
2018-11-22T20:59:55.285Z,60.38
2018-11-22T21:02:30.789Z,69.58
2018-11-22T21:05:07.472Z,63.85
2018-11-22T21:07:43.551Z,61.23
2018-11-22T21:10:26.662Z,67.45
2018-11-22T21:13:02.402Z,68.95
2018-11-22T21:15:37.821Z,54.65
2018-11-22T21:18:13.603Z,63.80
2018-11-22T21:20:49.161Z,54.38
2018-11-22T21:23:24.798Z,65.05
2018-11-22T21:26:00.152Z,59.13
2018-11-22T21:28:35.790Z,68.30
2018-11-22T21:31:11.307Z,66.85
2018-11-22T21:33:46.794Z,70.90
2018-11-22T21:36:22.095Z,62.80
2018-11-22T21:38:57.871Z,69.70
2018-11-22T21:41:33.322Z,71.33
2018-11-22T21:44:09.484Z,67.90
2018-11-22T21:46:45.262Z,68.22
2018-11-22T21:49:21.056Z,65.85
2018-11-22T21:51:56.490Z,68.83
2018-11-22T21:54:32.109Z,65.05
2018-11-22T21:57:07.789Z,60.03
2018-11-22T21:59:43.488Z,66.50
2018-11-22T22:02:18.828Z,65.55
2018-11-22T22:04:54.303Z,65.95
2018-11-22T22:07:29.792Z,70.35
2018-11-22T22:10:05.466Z,68.70
2018-11-22T22:12:41.503Z,63.55
2018-11-22T22:15:18.823Z,61.05
2018-11-22T22:17:54.253Z,61.80
2018-11-22T22:20:31.743Z,65.62
2018-11-22T22:23:13.250Z,59.98
2018-11-22T22:25:42.846Z,63.42
2018-11-22T22:28:18.249Z,63.33
2018-11-22T22:30:53.845Z,70.57
2018-11-22T22:33:29.306Z,72.35
2018-11-22T22:36:05.550Z,65.42
2018-11-22T22:38:40.970Z,66.47
2018-11-22T22:41:16.446Z,68.97
2018-11-22T22:43:51.782Z,66.20
2018-11-22T22:46:27.438Z,68.85
2018-11-22T22:49:02.726Z,61.73
2018-11-22T22:51:38.540Z,69.20
2018-11-22T22:54:14.034Z,75.12
2018-11-22T22:56:50.047Z,71.40
2018-11-22T22:59:25.341Z,71.80
2018-11-22T23:02:00.935Z,71.95
2018-11-22T23:04:36.398Z,68.67
2018-11-22T23:07:12.022Z,76.10
2018-11-22T23:09:47.242Z,83.58
2018-11-22T23:12:22.791Z,75.05
2018-11-22T23:14:58.302Z,70.65
2018-11-22T23:17:33.805Z,74.80
2018-11-22T23:20:13.370Z,74.07
2018-11-22T23:22:49.413Z,69.65
2018-11-22T23:25:25.914Z,83.58
2018-11-22T23:28:01.523Z,70.37
2018-11-22T23:30:37.030Z,80.53
2018-11-22T23:33:12.514Z,85.10
2018-11-22T23:35:48.076Z,71.42
2018-11-22T23:38:23.611Z,70.92
2018-11-22T23:40:58.877Z,74.80
2018-11-22T23:43:34.497Z,75.52
2018-11-22T23:46:10.163Z,77.03
2018-11-22T23:48:45.698Z,77.45
2018-11-22T23:51:20.902Z,74.72
2018-11-22T23:53:56.366Z,79.07
2018-11-22T23:56:31.694Z,78.05
2018-11-22T23:59:07.227Z,84.42
